LFPN 170830Z AUTO 22011KT 9999 SCT010 BKN014 BKN020 08/06 Q1016 BECMG BKN025

ElémentsDécodage
LFPN Station météo située sur l'aérodrome de TOUSSUS-LE-NOBLE
170830Z émis le 17 du mois à 08h30 UTC
AUTO Bulletin édité par un automate
22011KT vent du 220°, 11 noeuds
9999 visibilité horizontale supérieure à 10 Km
SCT010 nuages épars (3/8 à 4/8) à 1000 pieds
BKN014 nuages morcelés (5/8 à 7/8) à 1400 pieds
BKN020 nuages morcelés (5/8 à 7/8) à 2000 pieds
08/06 température 08°C, point de rosée 06°C
 soit une humidité relative de 87%
Q1016 la pression au niveau de la mer (QNH) est de 1016 hPa
BECMG fluctuation du temps prévue
BKN025 nuages morcelés (5/8 à 7/8) à 2500 pieds